createdAt,value
2019-03-22T00:01:45.549Z,7.97
2019-03-22T00:04:13.842Z,13.47
2019-03-22T00:06:42.061Z,12.10
2019-03-22T00:09:10.247Z,9.57
2019-03-22T00:11:38.541Z,11.20
2019-03-22T00:14:06.797Z,11.10
2019-03-22T00:16:35.013Z,10.13
2019-03-22T00:19:03.535Z,7.83
2019-03-22T00:21:32.903Z,10.10
2019-03-22T00:24:01.144Z,10.70
2019-03-22T00:26:32.438Z,11.57
2019-03-22T00:28:59.838Z,12.70
2019-03-22T00:31:28.827Z,9.70
2019-03-22T00:33:58.014Z,9.30
2019-03-22T00:36:26.454Z,8.90
2019-03-22T00:38:54.974Z,12.90
2019-03-22T00:41:23.166Z,9.77
2019-03-22T00:43:51.425Z,9.83
2019-03-22T00:46:20.449Z,7.63
2019-03-22T00:48:49.010Z,11.10
2019-03-22T00:51:17.545Z,10.20
2019-03-22T00:53:45.730Z,8.37
2019-03-22T00:56:14.016Z,8.40
2019-03-22T00:58:43.956Z,9.30
2019-03-22T01:01:12.339Z,10.20
2019-03-22T01:03:40.604Z,8.70
2019-03-22T01:06:08.916Z,11.07
2019-03-22T01:08:37.177Z,9.10
2019-03-22T01:11:06.968Z,7.30
2019-03-22T01:13:36.278Z,8.83
2019-03-22T01:16:04.543Z,11.90
2019-03-22T01:18:32.829Z,8.47
2019-03-22T01:21:01.357Z,8.13
2019-03-22T01:23:30.851Z,18.63
2019-03-22T01:25:59.221Z,9.90
2019-03-22T01:28:27.496Z,7.90
2019-03-22T01:30:55.767Z,10.53
2019-03-22T01:33:24.050Z,9.27
2019-03-22T01:35:52.246Z,10.10
2019-03-22T01:38:20.626Z,10.83
2019-03-22T01:40:48.885Z,9.60
2019-03-22T01:43:17.071Z,8.80
2019-03-22T01:45:45.349Z,13.30
2019-03-22T01:48:13.542Z,6.80
2019-03-22T01:50:42.441Z,10.30
2019-03-22T01:53:10.707Z,7.97
2019-03-22T01:55:38.986Z,9.20
2019-03-22T01:58:07.175Z,6.77
2019-03-22T02:00:35.462Z,13.10
2019-03-22T02:03:03.925Z,8.53
2019-03-22T02:05:32.187Z,9.30
2019-03-22T02:08:00.461Z,15.50
2019-03-22T02:10:28.746Z,10.23
2019-03-22T02:12:58.104Z,13.03
2019-03-22T02:15:26.458Z,10.70
2019-03-22T02:17:54.746Z,11.40
2019-03-22T02:20:23.015Z,10.70
2019-03-22T02:22:51.303Z,15.77
2019-03-22T02:25:19.641Z,17.00
2019-03-22T02:27:47.860Z,14.87
2019-03-22T02:30:16.798Z,15.70
2019-03-22T02:32:45.478Z,13.53
2019-03-22T02:35:27.549Z,9.50
2019-03-22T02:37:43.744Z,12.70
2019-03-22T02:40:12.262Z,13.00
2019-03-22T02:42:41.167Z,18.90
2019-03-22T02:45:13.066Z,11.17
2019-03-22T02:47:41.351Z,10.97
2019-03-22T02:50:17.953Z,13.40
2019-03-22T02:52:40.522Z,11.00
2019-03-22T02:55:09.774Z,11.83
2019-03-22T02:57:38.606Z,13.70
2019-03-22T03:00:08.499Z,14.30
2019-03-22T03:02:36.759Z,13.73
2019-03-22T03:05:06.121Z,15.17
2019-03-22T03:07:34.385Z,11.27
2019-03-22T03:10:03.106Z,10.30
2019-03-22T03:12:31.376Z,12.47
2019-03-22T03:14:59.662Z,12.47
2019-03-22T03:17:27.922Z,12.90
2019-03-22T03:19:56.136Z,12.23
2019-03-22T03:22:24.393Z,12.57
2019-03-22T03:24:52.611Z,12.43
2019-03-22T03:27:20.870Z,9.30
2019-03-22T03:29:49.162Z,14.60
2019-03-22T03:32:17.431Z,13.50
2019-03-22T03:34:45.732Z,10.20
2019-03-22T03:37:13.994Z,13.87
2019-03-22T03:39:42.690Z,9.77
2019-03-22T03:42:11.210Z,10.40
2019-03-22T03:44:39.396Z,11.60
2019-03-22T03:47:10.234Z,14.07
2019-03-22T03:49:39.135Z,17.77
2019-03-22T03:52:07.423Z,11.33
2019-03-22T03:54:35.698Z,11.70
2019-03-22T03:57:03.913Z,8.93
2019-03-22T03:59:32.181Z,12.27
2019-03-22T04:02:00.753Z,11.70
2019-03-22T04:04:29.238Z,15.60
2019-03-22T04:06:57.524Z,9.33
2019-03-22T04:09:25.782Z,11.73
2019-03-22T04:11:55.354Z,10.33
2019-03-22T04:14:24.682Z,8.70
2019-03-22T04:16:53.202Z,9.87
2019-03-22T04:19:21.604Z,12.73
2019-03-22T04:21:49.862Z,10.43
2019-03-22T04:24:20.327Z,10.70
2019-03-22T04:26:48.834Z,9.03
2019-03-22T04:29:17.048Z,15.80
2019-03-22T04:31:45.321Z,10.73
2019-03-22T04:34:13.642Z,15.70
2019-03-22T04:36:41.988Z,11.73
2019-03-22T04:39:10.267Z,14.50
2019-03-22T04:41:38.540Z,11.07
2019-03-22T04:44:06.832Z,13.27
2019-03-22T04:46:36.110Z,10.37
2019-03-22T04:49:04.713Z,14.80
2019-03-22T04:51:33.101Z,9.13
2019-03-22T04:54:01.861Z,10.20
2019-03-22T04:56:31.686Z,11.23
2019-03-22T04:59:00.280Z,18.33
2019-03-22T05:01:28.714Z,10.47
2019-03-22T05:03:59.057Z,16.00
2019-03-22T05:06:27.435Z,12.40
2019-03-22T05:08:57.246Z,10.00
2019-03-22T05:11:25.709Z,8.23
2019-03-22T05:13:55.493Z,11.53
2019-03-22T05:16:23.828Z,10.43
2019-03-22T05:18:52.631Z,10.87
2019-03-22T05:21:22.486Z,11.33
2019-03-22T05:23:53.554Z,11.30
2019-03-22T05:26:23.226Z,13.50
2019-03-22T05:28:51.558Z,13.53
2019-03-22T05:31:27.275Z,9.67
2019-03-22T05:33:55.542Z,10.83
2019-03-22T05:36:23.825Z,10.50
2019-03-22T05:38:52.018Z,10.40
2019-03-22T05:41:20.229Z,13.03
2019-03-22T05:43:48.420Z,10.80
2019-03-22T05:46:17.502Z,11.43
2019-03-22T05:48:46.733Z,16.00
2019-03-22T05:51:14.943Z,12.70
2019-03-22T05:53:43.931Z,13.80
2019-03-22T05:56:12.217Z,11.03
2019-03-22T05:58:40.418Z,10.30
2019-03-22T06:01:08.647Z,12.13
2019-03-22T06:03:36.843Z,11.13
2019-03-22T06:06:05.120Z,13.57
2019-03-22T06:08:34.206Z,7.70
2019-03-22T06:11:03.370Z,11.67
2019-03-22T06:13:31.582Z,10.07
2019-03-22T06:15:59.845Z,11.33
2019-03-22T06:18:28.654Z,13.80
2019-03-22T06:20:56.921Z,13.80
2019-03-22T06:23:25.139Z,16.83
2019-03-22T06:25:53.408Z,13.63
2019-03-22T06:28:22.245Z,22.13
2019-03-22T06:30:50.531Z,14.23
2019-03-22T06:33:18.798Z,15.27
2019-03-22T06:35:47.006Z,17.53
2019-03-22T06:38:15.507Z,17.23
2019-03-22T06:40:44.857Z,12.60
2019-03-22T06:43:13.198Z,12.53
2019-03-22T06:45:41.483Z,20.03
2019-03-22T06:48:09.676Z,22.93
2019-03-22T06:50:37.966Z,17.63
2019-03-22T06:53:06.231Z,18.33
2019-03-22T06:55:34.497Z,14.63
2019-03-22T06:58:02.713Z,15.73
2019-03-22T07:00:30.971Z,14.43
2019-03-22T07:02:59.256Z,20.20
2019-03-22T07:05:27.570Z,20.83
2019-03-22T07:07:57.837Z,17.83
2019-03-22T07:10:26.106Z,24.00
2019-03-22T07:12:54.509Z,17.53
2019-03-22T07:15:22.765Z,19.43
2019-03-22T07:17:50.987Z,24.50
2019-03-22T07:20:20.948Z,15.40
2019-03-22T07:22:49.138Z,18.37
2019-03-22T07:25:17.466Z,17.83
2019-03-22T07:27:45.733Z,21.73
2019-03-22T07:30:18.949Z,15.70
2019-03-22T07:32:46.042Z,23.53
2019-03-22T07:35:14.901Z,24.93
2019-03-22T07:37:43.966Z,24.37
2019-03-22T07:40:12.330Z,13.53
2019-03-22T07:42:40.591Z,16.77
2019-03-22T07:45:09.650Z,20.80
2019-03-22T07:47:37.914Z,15.13
2019-03-22T07:50:08.257Z,18.37
2019-03-22T07:52:36.446Z,22.27
2019-03-22T07:55:05.601Z,17.13
2019-03-22T07:57:34.066Z,17.40
2019-03-22T08:00:02.503Z,14.07
2019-03-22T08:02:30.794Z,19.37
2019-03-22T08:04:59.242Z,17.00
2019-03-22T08:07:27.541Z,16.67
2019-03-22T08:09:55.896Z,16.10
2019-03-22T08:12:24.450Z,16.60
2019-03-22T08:14:52.974Z,18.00
2019-03-22T08:17:21.258Z,18.13
2019-03-22T08:19:49.520Z,13.47
2019-03-22T08:22:17.829Z,15.50
2019-03-22T08:24:46.314Z,21.10
2019-03-22T08:27:14.617Z,16.83
2019-03-22T08:29:42.817Z,15.83
2019-03-22T08:32:11.023Z,17.80
2019-03-22T08:34:39.548Z,18.53
2019-03-22T08:37:07.801Z,15.73
2019-03-22T08:39:36.062Z,18.50
2019-03-22T08:42:04.322Z,14.93
2019-03-22T08:44:32.610Z,21.23
2019-03-22T08:47:00.837Z,15.10
2019-03-22T08:49:29.354Z,23.37
2019-03-22T08:51:57.820Z,16.20
2019-03-22T08:54:26.073Z,17.13
2019-03-22T08:56:54.351Z,14.47
2019-03-22T08:59:22.610Z,16.10
2019-03-22T09:01:50.899Z,14.40
2019-03-22T09:04:19.318Z,18.07
2019-03-22T09:06:47.629Z,16.20
2019-03-22T09:09:15.845Z,17.37
2019-03-22T09:11:44.140Z,22.90
2019-03-22T09:14:12.437Z,16.93
2019-03-22T09:16:40.717Z,19.73
2019-03-22T09:19:08.963Z,18.20
2019-03-22T09:21:37.248Z,16.40
2019-03-22T09:24:05.514Z,25.90
2019-03-22T09:26:46.822Z,17.60
2019-03-22T09:29:03.795Z,17.07
2019-03-22T09:31:32.072Z,19.40
2019-03-22T09:34:00.351Z,20.87
2019-03-22T09:36:28.639Z,17.40
2019-03-22T09:38:56.941Z,23.97
2019-03-22T09:41:25.207Z,22.27
2019-03-22T09:43:53.495Z,28.47
2019-03-22T09:46:21.758Z,16.07
2019-03-22T09:48:50.063Z,19.90
2019-03-22T09:51:18.338Z,19.50
2019-03-22T09:53:46.569Z,15.43
2019-03-22T09:56:14.762Z,25.83
2019-03-22T09:58:43.108Z,25.87
2019-03-22T10:01:23.079Z,17.43
2019-03-22T10:03:42.709Z,16.57
2019-03-22T10:06:12.069Z,19.43
2019-03-22T10:08:40.346Z,20.60
2019-03-22T10:11:08.629Z,20.37
2019-03-22T10:13:36.837Z,18.93
2019-03-22T10:16:05.114Z,18.43
2019-03-22T10:18:33.389Z,19.47
2019-03-22T10:21:02.703Z,18.13
2019-03-22T10:23:30.966Z,18.90
2019-03-22T10:25:59.190Z,23.77
2019-03-22T10:28:27.385Z,18.83
2019-03-22T10:30:55.683Z,21.30
2019-03-22T10:33:24.009Z,17.60
2019-03-22T10:35:52.347Z,20.90
2019-03-22T10:38:30.912Z,19.67
2019-03-22T10:40:50.819Z,16.77
2019-03-22T10:43:19.167Z,22.47
2019-03-22T10:45:47.429Z,20.03
2019-03-22T10:48:15.678Z,16.80
2019-03-22T10:50:44.213Z,23.23
2019-03-22T10:53:12.854Z,24.60
2019-03-22T10:55:41.113Z,17.80
2019-03-22T10:58:20.315Z,18.93
2019-03-22T11:00:39.313Z,21.13
2019-03-22T11:03:07.513Z,20.20
2019-03-22T11:05:35.813Z,20.87
2019-03-22T11:08:04.012Z,23.20
2019-03-22T11:10:32.297Z,20.03
2019-03-22T11:13:00.493Z,17.10
2019-03-22T11:15:28.785Z,21.93
2019-03-22T11:17:56.977Z,18.43
2019-03-22T11:20:25.260Z,18.83
2019-03-22T11:22:53.529Z,21.73
2019-03-22T11:25:21.750Z,19.50
2019-03-22T11:27:50.010Z,16.43
2019-03-22T11:30:18.400Z,20.03
2019-03-22T11:32:46.733Z,21.50
2019-03-22T11:35:15.394Z,18.13
2019-03-22T11:37:43.759Z,21.30
2019-03-22T11:40:15.565Z,20.00
2019-03-22T11:42:43.932Z,18.97
2019-03-22T11:45:19.060Z,20.37
2019-03-22T11:47:47.374Z,21.10
2019-03-22T11:50:15.567Z,24.87
2019-03-22T11:52:43.994Z,25.27
2019-03-22T11:55:13.132Z,21.83
2019-03-22T11:57:41.361Z,22.53
2019-03-22T12:00:14.154Z,24.13
2019-03-22T12:02:42.373Z,23.87
2019-03-22T12:05:10.638Z,24.77
2019-03-22T12:07:38.997Z,29.73
2019-03-22T12:10:08.730Z,26.70
2019-03-22T12:12:36.982Z,19.03
2019-03-22T12:15:08.164Z,17.27
2019-03-22T12:17:36.135Z,21.23
2019-03-22T12:20:05.965Z,20.23
2019-03-22T12:22:34.225Z,24.40
2019-03-22T12:25:02.441Z,17.90
2019-03-22T12:27:36.560Z,17.00
2019-03-22T12:30:00.588Z,17.37
2019-03-22T12:32:32.388Z,15.53
2019-03-22T12:34:58.790Z,18.87
2019-03-22T12:37:26.977Z,17.30
2019-03-22T12:39:55.193Z,13.13
2019-03-22T12:42:23.385Z,13.70
2019-03-22T12:44:51.581Z,14.50
2019-03-22T12:47:19.801Z,13.33
2019-03-22T12:49:48.066Z,11.20
2019-03-22T12:52:16.289Z,12.90
2019-03-22T12:54:44.564Z,13.67
2019-03-22T12:57:12.841Z,10.20
2019-03-22T12:59:41.038Z,10.03
2019-03-22T13:02:09.330Z,9.27
2019-03-22T13:04:37.519Z,8.50
2019-03-22T13:07:05.801Z,9.60
2019-03-22T13:09:34.065Z,12.33
2019-03-22T13:12:02.321Z,11.67
2019-03-22T13:14:30.534Z,12.40
2019-03-22T13:16:58.794Z,8.10
2019-03-22T13:19:27.092Z,6.73
2019-03-22T13:21:55.278Z,7.00
2019-03-22T13:24:23.490Z,5.73
2019-03-22T13:26:51.686Z,7.33
2019-03-22T13:29:19.974Z,5.83
2019-03-22T13:31:48.158Z,5.07
2019-03-22T13:34:16.443Z,7.00
2019-03-22T13:36:44.642Z,10.47
2019-03-22T13:39:12.913Z,5.40
2019-03-22T13:41:41.169Z,5.73
2019-03-22T13:44:09.454Z,6.70
2019-03-22T13:46:40.620Z,5.80
2019-03-22T13:49:07.569Z,5.57
2019-03-22T13:51:35.838Z,5.63
2019-03-22T13:54:04.164Z,7.77
2019-03-22T13:56:33.656Z,5.40
2019-03-22T13:59:01.909Z,6.17
2019-03-22T14:01:30.122Z,4.93
2019-03-22T14:03:58.382Z,6.53
2019-03-22T14:06:27.233Z,12.00
2019-03-22T14:08:55.420Z,6.07
2019-03-22T14:11:23.629Z,9.37
2019-03-22T14:13:52.050Z,4.87
2019-03-22T14:16:20.437Z,4.80
2019-03-22T14:18:48.622Z,5.50
2019-03-22T14:21:16.906Z,4.93
2019-03-22T14:23:45.172Z,4.87
2019-03-22T14:26:13.493Z,6.40
2019-03-22T14:28:43.428Z,5.93
2019-03-22T14:31:11.904Z,5.00
2019-03-22T14:33:40.410Z,6.83
2019-03-22T14:36:09.248Z,7.47
2019-03-22T14:38:37.530Z,8.60
2019-03-22T14:41:05.810Z,7.07
2019-03-22T14:43:34.196Z,6.83
2019-03-22T14:46:02.461Z,8.07
2019-03-22T14:48:31.734Z,8.80
2019-03-22T14:51:00.003Z,6.37
2019-03-22T14:53:28.281Z,9.57
2019-03-22T14:55:56.486Z,9.03
2019-03-22T14:58:24.765Z,9.13
2019-03-22T15:00:54.252Z,9.57
2019-03-22T15:03:26.072Z,9.07
2019-03-22T15:05:54.697Z,10.13
2019-03-22T15:08:23.081Z,10.20
2019-03-22T15:10:52.798Z,10.23
2019-03-22T15:13:39.058Z,10.40
2019-03-22T15:16:10.917Z,11.43
2019-03-22T15:18:57.334Z,11.77
2019-03-22T15:21:27.493Z,11.00
2019-03-22T15:24:13.657Z,10.37
2019-03-22T15:26:52.179Z,18.10
2019-03-22T15:29:35.322Z,14.17
2019-03-22T15:32:05.158Z,13.17
2019-03-22T15:34:37.838Z,14.07
2019-03-22T15:37:15.399Z,17.20
2019-03-22T15:39:49.243Z,16.33
2019-03-22T15:42:17.538Z,13.90
2019-03-22T15:44:45.798Z,13.20
2019-03-22T15:47:15.298Z,12.60
2019-03-22T15:49:43.741Z,16.50
2019-03-22T15:52:11.958Z,12.23
2019-03-22T15:54:40.621Z,16.07
2019-03-22T15:57:08.906Z,14.67
2019-03-22T15:59:37.237Z,14.77
2019-03-22T16:02:05.450Z,12.33
2019-03-22T16:04:33.645Z,12.00
2019-03-22T16:07:01.905Z,12.17
2019-03-22T16:09:31.136Z,12.97
2019-03-22T16:11:59.686Z,16.20
2019-03-22T16:14:27.973Z,14.60
2019-03-22T16:16:56.236Z,20.13
2019-03-22T16:19:25.621Z,14.50
2019-03-22T16:21:54.381Z,14.23
2019-03-22T16:24:23.950Z,16.27
2019-03-22T16:26:52.213Z,15.17
2019-03-22T16:29:20.688Z,14.60
2019-03-22T16:31:48.949Z,18.87
2019-03-22T16:34:17.269Z,16.17
2019-03-22T16:36:45.710Z,16.30
2019-03-22T16:39:14.295Z,17.03
2019-03-22T16:41:42.578Z,16.30
2019-03-22T16:44:10.838Z,21.07
2019-03-22T16:46:39.135Z,18.60
2019-03-22T16:49:07.406Z,19.60
2019-03-22T16:51:35.702Z,17.53
2019-03-22T16:54:04.138Z,21.17
2019-03-22T16:56:32.429Z,21.13
2019-03-22T16:59:00.694Z,22.47
2019-03-22T17:01:28.916Z,19.93
2019-03-22T17:04:04.145Z,21.73
2019-03-22T17:06:27.366Z,23.67
2019-03-22T17:08:55.629Z,21.50
2019-03-22T17:11:24.437Z,24.00
2019-03-22T17:13:52.806Z,25.47
2019-03-22T17:16:21.074Z,17.93
2019-03-22T17:18:50.312Z,19.57
2019-03-22T17:21:18.581Z,30.67
2019-03-22T17:23:46.866Z,23.20
2019-03-22T17:26:15.134Z,24.23
2019-03-22T17:28:43.361Z,23.10
2019-03-22T17:31:11.621Z,27.80
2019-03-22T17:33:39.845Z,24.10
2019-03-22T17:36:08.046Z,25.30
2019-03-22T17:38:38.046Z,32.93
2019-03-22T17:41:06.554Z,21.53
2019-03-22T17:43:34.856Z,25.30
2019-03-22T17:46:03.388Z,25.00
2019-03-22T17:48:31.689Z,29.90
2019-03-22T17:50:59.884Z,30.40
2019-03-22T17:53:30.039Z,28.63
2019-03-22T17:55:59.923Z,30.40
2019-03-22T17:58:28.426Z,26.90
2019-03-22T18:00:57.009Z,27.03
2019-03-22T18:03:25.202Z,31.87
2019-03-22T18:05:53.419Z,26.63
2019-03-22T18:08:21.610Z,30.67
2019-03-22T18:10:49.898Z,28.57
2019-03-22T18:13:19.973Z,32.20
2019-03-22T18:15:48.187Z,31.53
2019-03-22T18:18:16.474Z,28.70
2019-03-22T18:20:46.586Z,24.33
2019-03-22T18:23:14.805Z,35.50
2019-03-22T18:25:43.082Z,33.57
2019-03-22T18:28:11.601Z,40.70
2019-03-22T18:30:40.147Z,31.03
2019-03-22T18:33:09.490Z,27.37
2019-03-22T18:35:37.679Z,31.83
2019-03-22T18:38:05.969Z,32.83
2019-03-22T18:40:35.006Z,31.57
2019-03-22T18:43:04.826Z,25.63
2019-03-22T18:45:33.016Z,39.70
2019-03-22T18:48:02.486Z,24.70
2019-03-22T18:50:30.687Z,21.67
2019-03-22T18:52:59.235Z,27.27
2019-03-22T18:55:27.498Z,28.20
2019-03-22T18:57:56.281Z,25.37
2019-03-22T19:00:24.538Z,30.40
2019-03-22T19:02:52.877Z,28.37
2019-03-22T19:05:22.428Z,26.43
2019-03-22T19:07:50.624Z,28.33
2019-03-22T19:10:18.918Z,23.40
2019-03-22T19:12:47.231Z,25.30
2019-03-22T19:15:15.550Z,32.00
2019-03-22T19:17:43.748Z,29.03
2019-03-22T19:20:13.579Z,31.97
2019-03-22T19:22:41.766Z,30.10
2019-03-22T19:25:10.229Z,24.90
2019-03-22T19:27:38.499Z,27.30
2019-03-22T19:30:08.267Z,27.50
2019-03-22T19:32:38.418Z,30.53
2019-03-22T19:35:09.356Z,26.50
2019-03-22T19:37:37.573Z,33.80
2019-03-22T19:40:11.686Z,31.23
2019-03-22T19:42:39.972Z,25.70
2019-03-22T19:45:09.411Z,23.90
2019-03-22T19:47:37.703Z,24.03
2019-03-22T19:50:07.131Z,32.67
2019-03-22T19:52:35.585Z,25.07
2019-03-22T19:55:05.786Z,27.53
2019-03-22T19:57:34.006Z,25.70
2019-03-22T20:00:02.334Z,22.27
2019-03-22T20:02:30.589Z,28.77
2019-03-22T20:05:04.591Z,23.27
2019-03-22T20:07:30.046Z,23.77
2019-03-22T20:09:58.373Z,24.20
2019-03-22T20:12:26.646Z,22.77
2019-03-22T20:14:54.928Z,23.83
2019-03-22T20:17:23.195Z,26.27
2019-03-22T20:19:53.769Z,27.37
2019-03-22T20:22:23.035Z,26.13
2019-03-22T20:24:51.362Z,26.70
2019-03-22T20:27:20.725Z,26.10
2019-03-22T20:29:48.918Z,27.43
2019-03-22T20:32:17.138Z,23.27
2019-03-22T20:34:45.591Z,23.13
2019-03-22T20:37:13.803Z,22.37
2019-03-22T20:39:42.070Z,25.83
2019-03-22T20:42:10.850Z,21.87
2019-03-22T20:44:39.274Z,23.60
2019-03-22T20:47:07.499Z,28.10
2019-03-22T20:49:35.763Z,23.20
2019-03-22T20:52:04.926Z,29.93
2019-03-22T20:54:34.161Z,28.73
2019-03-22T20:57:02.649Z,26.77
2019-03-22T20:59:32.309Z,25.17
2019-03-22T21:02:01.125Z,27.03
2019-03-22T21:04:29.652Z,29.20
2019-03-22T21:06:59.980Z,29.07
2019-03-22T21:09:28.529Z,22.80
2019-03-22T21:11:56.794Z,24.67
2019-03-22T21:14:25.122Z,37.33
2019-03-22T21:16:53.886Z,28.60
2019-03-22T21:19:22.184Z,25.17
2019-03-22T21:21:51.772Z,25.03
2019-03-22T21:24:20.184Z,26.37
2019-03-22T21:26:48.466Z,27.00
2019-03-22T21:29:16.733Z,29.60
2019-03-22T21:31:44.953Z,35.20
2019-03-22T21:34:13.147Z,24.80
2019-03-22T21:36:41.382Z,27.80
2019-03-22T21:39:09.574Z,26.73
2019-03-22T21:41:37.789Z,25.93
2019-03-22T21:44:05.986Z,28.10
2019-03-22T21:46:35.761Z,23.40
2019-03-22T21:49:03.952Z,26.53
2019-03-22T21:51:32.926Z,34.77
2019-03-22T21:54:01.695Z,27.03
2019-03-22T21:56:29.885Z,26.03
2019-03-22T21:58:58.125Z,22.00
2019-03-22T22:01:26.318Z,25.03
2019-03-22T22:03:54.534Z,27.80
2019-03-22T22:06:22.977Z,27.23
2019-03-22T22:08:51.266Z,29.50
2019-03-22T22:11:19.531Z,25.73
2019-03-22T22:13:47.822Z,30.47
2019-03-22T22:16:16.095Z,27.90
2019-03-22T22:18:44.629Z,26.23
2019-03-22T22:21:12.901Z,27.53
2019-03-22T22:23:41.189Z,26.30
2019-03-22T22:26:09.459Z,24.80
2019-03-22T22:28:37.929Z,31.83
2019-03-22T22:31:06.200Z,24.30
2019-03-22T22:33:34.457Z,25.27
2019-03-22T22:36:03.449Z,27.97
2019-03-22T22:38:33.177Z,22.50
2019-03-22T22:41:01.395Z,26.10
2019-03-22T22:43:32.915Z,30.37
2019-03-22T22:46:01.541Z,23.90
2019-03-22T22:48:29.792Z,25.33
2019-03-22T22:50:59.158Z,30.13
2019-03-22T22:53:27.357Z,26.47
2019-03-22T22:55:56.930Z,26.97
2019-03-22T22:58:25.383Z,26.07
2019-03-22T23:00:53.677Z,25.87
2019-03-22T23:03:23.578Z,26.87
2019-03-22T23:05:53.350Z,28.97
2019-03-22T23:08:21.634Z,27.67
2019-03-22T23:10:49.826Z,25.93
2019-03-22T23:13:18.113Z,29.87
2019-03-22T23:15:46.302Z,31.23
2019-03-22T23:18:16.053Z,29.23
2019-03-22T23:20:44.506Z,26.40
2019-03-22T23:23:13.103Z,24.07
2019-03-22T23:25:41.613Z,25.80
2019-03-22T23:28:09.954Z,29.60
2019-03-22T23:30:38.241Z,26.70
2019-03-22T23:33:06.489Z,29.10
2019-03-22T23:35:34.778Z,26.17
2019-03-22T23:38:03.036Z,23.43
2019-03-22T23:40:31.253Z,30.23
2019-03-22T23:42:59.443Z,26.40
2019-03-22T23:45:27.755Z,33.47
2019-03-22T23:47:56.006Z,31.70
2019-03-22T23:50:24.220Z,24.60
2019-03-22T23:52:52.419Z,26.90
2019-03-22T23:55:21.776Z,27.07
2019-03-22T23:57:50.051Z,24.87
